Bradford County (N27)
Towanda, PA
Field Elevation: 730
Lat: 41°44.40N  Long: 76°26.83W
CTAF/Unicom Freq: 123.0000
   
     For Weather-by-Phone, call (570) 265-1024
Weather Advisories
10/23/2014 09:13 Z
Altimeter 29.95" Hg
Wind 360° @ 8 KT
Gusts --
Visibility 10 SM
Ceiling OVC034
Temperature 9° C (48° F)
Dewpoint 5° C (41° F)
Relative Humidity 76%
Density Altitude --
Condensation Altitude 2,700 feet
Wind Chill 7° C (45° F)
  Wind and Runways
Indicated Runway = 5
History
 
 
More Info
All DigiWx sites map
NOAA Forecast
 
Airport IQ 5010
(LHV) Lock Haven
(PS81) Robert Packer Hospital
 
about DigiWx
 
FAA Disclaimer: The data displayed is for advisory purposes only and is not to be used for flight planning or operations. For official data, please call (570) 265-1024 to hear the current automated AWOS voice message.
  METAR N27 230913Z AUTO 36008KT 10SM OVC034 09/05 A2995